createdAt,value
2019-04-22T00:00:22.630Z,18.90
2019-04-22T00:01:24.458Z,19.80
2019-04-22T00:02:18.752Z,23.50
2019-04-22T00:03:20.696Z,22.90
2019-04-22T00:04:29.831Z,21.20
2019-04-22T00:05:41.473Z,19.80
2019-04-22T00:06:39.479Z,18.20
2019-04-22T00:07:45.939Z,17.50
2019-04-22T00:08:47.613Z,16.90
2019-04-22T00:09:46.178Z,15.40
2019-04-22T00:10:48.690Z,14.30
2019-04-22T00:12:49.987Z,16.70
2019-04-22T00:13:47.175Z,16.20
2019-04-22T00:14:38.827Z,17.80
2019-04-22T00:15:37.059Z,15.10
2019-04-22T00:16:47.046Z,14.70
2019-04-22T00:17:48.579Z,17.10
2019-04-22T00:18:54.829Z,18.40
2019-04-22T00:19:43.857Z,17.70
2019-04-22T00:20:42.324Z,14.30
2019-04-22T00:21:46.069Z,14.30
2019-04-22T00:22:42.670Z,14.30
2019-04-22T00:23:39.325Z,14.90
2019-04-22T00:24:46.109Z,16.60
2019-04-22T00:25:52.890Z,16.50
2019-04-22T00:26:45.637Z,16.90
2019-04-22T00:28:43.785Z,14.20
2019-04-22T00:30:44.898Z,18.30
2019-04-22T00:31:40.467Z,21.60
2019-04-22T00:32:36.287Z,23.70
2019-04-22T00:33:39.420Z,23.00
2019-04-22T00:34:45.476Z,29.60
2019-04-22T00:35:42.017Z,28.80
2019-04-22T00:36:46.023Z,25.10
2019-04-22T00:37:43.158Z,23.30
2019-04-22T00:38:44.325Z,19.20
2019-04-22T00:39:42.725Z,18.80
2019-04-22T00:40:39.950Z,17.20
2019-04-22T00:41:44.392Z,14.80
2019-04-22T00:42:41.322Z,16.50
2019-04-22T00:43:39.583Z,20.40
2019-04-22T00:44:46.644Z,22.20
2019-04-22T00:45:43.100Z,21.40
2019-04-22T00:46:48.755Z,25.60
2019-04-22T00:47:39.973Z,21.80
2019-04-22T00:48:48.626Z,20.70
2019-04-22T00:50:46.670Z,31.40
2019-04-22T00:51:44.332Z,31.00
2019-04-22T00:52:40.409Z,29.80
2019-04-22T00:53:44.313Z,26.70
2019-04-22T00:54:49.514Z,21.50
2019-04-22T00:55:43.979Z,19.50
2019-04-22T00:56:42.329Z,14.90
2019-04-22T00:57:42.142Z,15.40
2019-04-22T00:58:41.195Z,17.90
2019-04-22T00:59:40.527Z,19.00
2019-04-22T01:00:51.853Z,16.60
2019-04-22T01:01:37.080Z,22.10
2019-04-22T01:02:46.177Z,19.90
2019-04-22T01:05:00.766Z,20.80
2019-04-22T01:05:42.312Z,22.50
2019-04-22T01:06:41.622Z,19.70
2019-04-22T01:07:36.889Z,25.80
2019-04-22T01:08:48.112Z,23.60
2019-04-22T01:09:44.961Z,20.30
2019-04-22T01:10:45.229Z,17.50
2019-04-22T01:11:37.851Z,13.60
2019-04-22T01:12:39.623Z,14.60
2019-04-22T01:13:38.686Z,16.60
2019-04-22T01:14:44.346Z,17.30
2019-04-22T01:15:45.077Z,13.30
2019-04-22T01:16:44.201Z,13.10
2019-04-22T01:17:43.507Z,12.60
2019-04-22T01:18:38.003Z,15.10
2019-04-22T01:19:47.120Z,17.30
2019-04-22T01:21:00.572Z,17.40
2019-04-22T01:21:40.770Z,17.50
2019-04-22T01:22:34.168Z,16.80
2019-04-22T01:23:34.548Z,16.00
2019-04-22T01:24:34.920Z,16.40
2019-04-22T01:25:37.437Z,19.00
2019-04-22T01:26:29.005Z,16.90
2019-04-22T01:27:30.970Z,20.60
2019-04-22T01:28:30.168Z,20.10
2019-04-22T01:30:26.579Z,16.70
2019-04-22T01:31:20.370Z,18.30
2019-04-22T01:32:22.867Z,18.80
2019-04-22T01:33:23.824Z,20.00
2019-04-22T01:34:28.850Z,21.40
2019-04-22T01:35:31.114Z,22.30
2019-04-22T01:36:35.270Z,22.90
2019-04-22T01:37:36.898Z,23.20
2019-04-22T01:38:43.281Z,24.20
2019-04-22T01:39:44.092Z,22.90
2019-04-22T01:40:45.514Z,22.60
2019-04-22T01:41:48.797Z,22.40
2019-04-22T01:42:39.805Z,23.40
2019-04-22T01:44:40.796Z,25.10
2019-04-22T01:45:42.183Z,25.60
2019-04-22T01:46:45.058Z,31.40
2019-04-22T01:48:39.318Z,40.70
2019-04-22T01:49:40.060Z,49.00
2019-04-22T01:50:37.961Z,58.40
2019-04-22T01:51:52.879Z,49.20
2019-04-22T01:52:39.946Z,43.90
2019-04-22T01:53:43.291Z,43.30
2019-04-22T01:54:45.435Z,45.40
2019-04-22T01:56:41.065Z,34.30
2019-04-22T01:57:39.921Z,35.40
2019-04-22T01:58:36.276Z,26.70
2019-04-22T01:59:31.778Z,25.40
2019-04-22T02:00:39.623Z,23.00
2019-04-22T02:01:48.554Z,30.10
2019-04-22T02:02:41.689Z,32.50
2019-04-22T02:03:43.079Z,37.80
2019-04-22T02:05:40.312Z,30.40
2019-04-22T02:06:45.694Z,50.20
2019-04-22T02:07:42.414Z,109.40
2019-04-22T02:08:45.144Z,111.00
2019-04-22T02:10:53.089Z,91.40
2019-04-22T02:11:46.712Z,90.90
2019-04-22T02:12:43.334Z,108.70
2019-04-22T02:13:47.920Z,98.40
2019-04-22T02:14:44.324Z,79.20
2019-04-22T02:15:46.522Z,75.20
2019-04-22T02:16:41.635Z,74.50
2019-04-22T02:20:35.863Z,98.00
2019-04-22T02:21:38.538Z,93.30
2019-04-22T02:23:10.198Z,72.10
2019-04-22T02:23:49.505Z,86.60
2019-04-22T02:25:42.720Z,48.40
2019-04-22T02:26:40.241Z,73.50
2019-04-22T02:27:52.427Z,61.10
2019-04-22T02:29:43.473Z,47.90
2019-04-22T02:30:50.683Z,55.60
2019-04-22T02:31:45.338Z,73.70
2019-04-22T02:33:08.616Z,68.10
2019-04-22T02:34:49.765Z,72.40
2019-04-22T02:35:58.398Z,72.30
2019-04-22T02:37:35.940Z,75.20
2019-04-22T02:38:59.060Z,68.90
2019-04-22T02:39:43.081Z,50.60
2019-04-22T02:40:59.701Z,52.70
2019-04-22T02:42:00.657Z,40.70
2019-04-22T02:42:35.170Z,45.10
2019-04-22T02:44:42.160Z,42.60
2019-04-22T02:45:50.303Z,41.90
2019-04-22T02:47:01.135Z,42.00
2019-04-22T02:47:47.601Z,40.80
2019-04-22T02:50:45.400Z,33.80
2019-04-22T02:54:47.214Z,32.70
2019-04-22T02:55:55.336Z,36.90
2019-04-22T02:56:38.159Z,42.70
2019-04-22T02:57:41.523Z,30.90
2019-04-22T02:58:56.695Z,34.10
2019-04-22T02:59:52.587Z,35.50
2019-04-22T03:00:45.883Z,42.10
2019-04-22T03:02:50.690Z,46.00
2019-04-22T03:04:45.377Z,35.60
2019-04-22T03:05:59.253Z,38.00
2019-04-22T03:07:50.638Z,35.20
2019-04-22T03:08:51.243Z,33.10
2019-04-22T03:09:45.214Z,30.20
2019-04-22T03:10:56.520Z,28.30
2019-04-22T03:11:52.549Z,25.90
2019-04-22T03:14:42.922Z,19.90
2019-04-22T03:15:55.432Z,20.50
2019-04-22T03:16:57.277Z,24.30
2019-04-22T03:18:00.862Z,28.20
2019-04-22T03:19:50.436Z,30.00
2019-04-22T03:20:41.942Z,23.40
2019-04-22T03:21:36.697Z,25.90
2019-04-22T03:25:27.515Z,28.70
2019-04-22T03:26:00.413Z,26.80
2019-04-22T03:26:45.798Z,23.40
2019-04-22T03:29:59.807Z,20.80
2019-04-22T03:33:51.735Z,21.70
2019-04-22T03:39:06.152Z,19.90
2019-04-22T03:40:46.474Z,16.20
2019-04-22T03:42:02.512Z,17.30
2019-04-22T03:42:52.342Z,19.10
2019-04-22T03:44:00.711Z,19.00
2019-04-22T03:45:34.017Z,19.20
2019-04-22T03:46:53.362Z,21.00
2019-04-22T03:47:47.859Z,18.20
2019-04-22T03:48:45.791Z,20.70
2019-04-22T03:49:58.417Z,17.60
2019-04-22T03:51:05.190Z,18.70
2019-04-22T03:52:03.046Z,18.90
2019-04-22T03:52:38.710Z,17.20
2019-04-22T03:53:40.345Z,16.90
2019-04-22T03:54:47.215Z,16.70
2019-04-22T03:58:26.226Z,12.40
2019-04-22T03:58:51.194Z,14.00
2019-04-22T04:00:49.685Z,15.20
2019-04-22T04:03:40.427Z,12.80
2019-04-22T04:04:47.479Z,10.20
2019-04-22T04:05:45.559Z,11.50
2019-04-22T04:06:59.708Z,10.30
2019-04-22T04:07:47.544Z,12.30
2019-04-22T04:09:45.635Z,11.60
2019-04-22T04:10:40.224Z,11.40
2019-04-22T04:11:53.830Z,10.00
2019-04-22T04:12:51.089Z,14.10
2019-04-22T04:13:50.171Z,10.90
2019-04-22T04:14:47.183Z,10.60
2019-04-22T04:16:48.062Z,10.10
2019-04-22T04:17:44.472Z,9.50
2019-04-22T04:18:47.473Z,8.20
2019-04-22T04:20:51.158Z,15.20
2019-04-22T04:21:41.369Z,12.40
2019-04-22T04:24:01.225Z,12.60
2019-04-22T04:26:59.199Z,11.80
2019-04-22T04:28:50.407Z,12.90
2019-04-22T04:31:51.310Z,10.10
2019-04-22T04:33:50.611Z,9.50
2019-04-22T04:35:07.694Z,9.00
2019-04-22T04:36:42.534Z,9.80
2019-04-22T04:38:46.260Z,11.20
2019-04-22T04:39:51.130Z,11.10
2019-04-22T04:40:44.953Z,11.70
2019-04-22T04:43:50.515Z,9.60
2019-04-22T04:45:45.198Z,10.40
2019-04-22T04:47:06.093Z,11.10
2019-04-22T04:47:47.578Z,12.80
2019-04-22T04:49:48.419Z,13.20
2019-04-22T04:52:03.054Z,20.60
2019-04-22T04:53:04.789Z,20.50
2019-04-22T04:55:53.282Z,42.40
2019-04-22T04:56:40.431Z,44.30
2019-04-22T04:58:06.097Z,50.70
2019-04-22T05:01:45.128Z,58.90
2019-04-22T05:03:48.893Z,57.30
2019-04-22T05:07:40.519Z,44.40
2019-04-22T05:09:01.505Z,40.60
2019-04-22T05:09:34.051Z,38.00
2019-04-22T05:11:54.035Z,34.80
2019-04-22T05:13:49.426Z,24.90
2019-04-22T05:14:41.511Z,17.80
2019-04-22T05:15:46.204Z,15.90
2019-04-22T05:18:54.639Z,13.90
2019-04-22T05:19:33.149Z,13.80
2019-04-22T05:20:59.733Z,12.40
2019-04-22T05:21:53.107Z,13.30
2019-04-22T05:23:41.952Z,12.30
2019-04-22T05:24:38.094Z,10.40
2019-04-22T05:25:55.072Z,10.30
2019-04-22T05:26:40.011Z,11.30
2019-04-22T05:28:38.158Z,11.30
2019-04-22T05:29:46.502Z,8.20
2019-04-22T05:30:36.908Z,8.40
2019-04-22T05:31:38.928Z,9.60
2019-04-22T05:32:37.040Z,8.50
2019-04-22T05:33:34.947Z,9.00
2019-04-22T05:34:34.609Z,8.50
2019-04-22T05:35:31.216Z,12.70
2019-04-22T05:36:34.409Z,7.00
2019-04-22T05:37:35.550Z,9.30
2019-04-22T05:38:44.328Z,8.40
2019-04-22T05:39:34.022Z,8.00
2019-04-22T05:40:29.363Z,7.10
2019-04-22T05:41:36.420Z,8.40
2019-04-22T05:42:29.057Z,9.30
2019-04-22T05:43:35.801Z,6.20
2019-04-22T05:44:34.353Z,7.30
2019-04-22T05:45:35.789Z,11.30
2019-04-22T05:46:26.177Z,7.10
2019-04-22T05:47:33.378Z,6.70
2019-04-22T05:48:41.850Z,6.90
2019-04-22T05:49:28.912Z,6.40
2019-04-22T05:50:29.358Z,5.20
2019-04-22T05:51:37.050Z,5.40
2019-04-22T05:52:31.574Z,6.80
2019-04-22T05:53:37.228Z,7.20
2019-04-22T05:54:33.064Z,8.20
2019-04-22T05:55:35.869Z,8.50
2019-04-22T05:56:47.704Z,9.90
2019-04-22T05:57:35.648Z,6.40
2019-04-22T05:58:40.089Z,6.00
2019-04-22T05:59:34.408Z,5.20
2019-04-22T06:01:01.930Z,5.20
2019-04-22T06:03:35.219Z,4.50
2019-04-22T06:04:29.590Z,5.30
2019-04-22T06:06:34.217Z,5.40
2019-04-22T06:07:33.957Z,7.50
2019-04-22T06:08:29.593Z,6.10
2019-04-22T06:09:28.456Z,8.30
2019-04-22T06:11:51.954Z,5.90
2019-04-22T06:12:26.518Z,6.20
2019-04-22T06:13:28.081Z,5.60
2019-04-22T06:14:34.567Z,6.50
2019-04-22T06:15:29.076Z,7.00
2019-04-22T06:16:31.343Z,7.40
2019-04-22T06:17:55.054Z,6.40
2019-04-22T06:18:33.353Z,6.30
2019-04-22T06:19:31.891Z,7.90
2019-04-22T06:20:32.743Z,7.10
2019-04-22T06:21:35.645Z,7.80
2019-04-22T06:22:40.038Z,6.90
2019-04-22T06:23:44.418Z,6.90
2019-04-22T06:24:53.864Z,7.70
2019-04-22T06:25:55.400Z,9.20
2019-04-22T06:26:39.386Z,6.10
2019-04-22T06:27:38.640Z,5.90
2019-04-22T06:28:47.151Z,8.00
2019-04-22T06:29:31.890Z,5.40
2019-04-22T06:30:49.001Z,4.60
2019-04-22T06:33:49.822Z,8.10
2019-04-22T06:36:37.430Z,8.30
2019-04-22T06:37:33.664Z,6.70
2019-04-22T06:39:34.360Z,7.10
2019-04-22T06:40:32.859Z,6.30
2019-04-22T06:41:35.404Z,5.40
2019-04-22T06:42:39.998Z,6.00
2019-04-22T06:43:35.586Z,6.80
2019-04-22T06:44:29.611Z,5.20
2019-04-22T06:45:30.584Z,6.80
2019-04-22T06:46:37.852Z,6.50
2019-04-22T06:47:44.120Z,6.70
2019-04-22T06:48:30.087Z,7.00
2019-04-22T06:50:36.795Z,8.70
2019-04-22T06:51:32.910Z,7.00
2019-04-22T06:52:28.165Z,7.30
2019-04-22T06:54:34.262Z,8.40
2019-04-22T06:55:36.788Z,9.70
2019-04-22T06:56:27.829Z,8.10
2019-04-22T06:57:30.840Z,6.70
2019-04-22T06:58:28.944Z,7.30
2019-04-22T06:59:31.175Z,6.10
2019-04-22T07:00:32.384Z,7.50
2019-04-22T07:04:31.743Z,7.40
2019-04-22T07:05:32.867Z,6.60
2019-04-22T07:06:35.741Z,5.60
2019-04-22T07:07:33.358Z,7.00
2019-04-22T07:09:38.286Z,7.80
2019-04-22T07:10:36.689Z,6.70
2019-04-22T07:11:33.375Z,6.50
2019-04-22T07:12:30.212Z,7.40
2019-04-22T07:14:30.279Z,9.00
2019-04-22T07:15:46.376Z,8.50
2019-04-22T07:16:34.648Z,8.80
2019-04-22T07:17:38.043Z,7.60
2019-04-22T07:18:35.982Z,7.50
2019-04-22T07:19:33.550Z,7.60
2019-04-22T07:20:30.486Z,8.30
2019-04-22T07:21:30.833Z,9.00
2019-04-22T07:22:38.904Z,7.40
2019-04-22T07:23:37.411Z,7.20
2019-04-22T07:24:45.956Z,8.20
2019-04-22T07:25:30.995Z,7.20
2019-04-22T07:26:25.009Z,7.00
2019-04-22T07:27:28.043Z,8.20
2019-04-22T07:28:27.376Z,6.90
2019-04-22T07:29:37.519Z,6.60
2019-04-22T07:30:54.626Z,7.50
2019-04-22T07:31:28.890Z,7.20
2019-04-22T07:32:54.905Z,7.30
2019-04-22T07:33:32.506Z,7.70
2019-04-22T07:34:29.584Z,9.50
2019-04-22T07:35:42.906Z,7.00
2019-04-22T07:37:43.448Z,8.90
2019-04-22T07:38:26.899Z,9.70
2019-04-22T07:39:30.854Z,9.40
2019-04-22T07:40:34.035Z,9.70
2019-04-22T07:41:34.555Z,8.80
2019-04-22T07:42:31.069Z,6.00
2019-04-22T07:43:39.770Z,6.80
2019-04-22T07:44:30.891Z,6.90
2019-04-22T07:45:30.008Z,7.40
2019-04-22T07:46:33.553Z,7.80
2019-04-22T07:47:34.123Z,10.90
2019-04-22T07:48:45.311Z,10.10
2019-04-22T07:49:41.041Z,7.50
2019-04-22T07:50:42.793Z,7.20
2019-04-22T07:51:34.118Z,6.80
2019-04-22T07:52:27.823Z,6.80
2019-04-22T07:53:32.426Z,7.40
2019-04-22T07:54:31.644Z,8.60
2019-04-22T07:55:26.983Z,10.00
2019-04-22T07:56:30.523Z,9.00
2019-04-22T07:57:44.521Z,7.30
2019-04-22T07:58:29.245Z,8.20
2019-04-22T07:59:28.029Z,8.90
2019-04-22T08:00:29.472Z,9.30
2019-04-22T08:01:50.477Z,11.40
2019-04-22T08:02:31.777Z,11.50
2019-04-22T08:03:38.094Z,9.10
2019-04-22T08:04:49.970Z,12.90
2019-04-22T08:05:33.373Z,9.40
2019-04-22T08:06:29.557Z,10.70
2019-04-22T08:07:33.325Z,7.70
2019-04-22T08:08:29.236Z,7.20
2019-04-22T08:09:41.904Z,8.20
2019-04-22T08:12:34.945Z,8.00
2019-04-22T08:13:31.275Z,9.20
2019-04-22T08:14:34.416Z,9.90
2019-04-22T08:15:32.687Z,9.10
2019-04-22T08:16:32.890Z,8.40
2019-04-22T08:17:51.866Z,8.40
2019-04-22T08:19:33.161Z,9.00
2019-04-22T08:20:28.988Z,8.60
2019-04-22T08:21:29.882Z,9.40
2019-04-22T08:22:27.218Z,8.90
2019-04-22T08:23:33.603Z,10.60
2019-04-22T08:24:37.528Z,9.10
2019-04-22T08:25:36.748Z,9.00
2019-04-22T08:26:32.253Z,9.30
2019-04-22T08:27:33.464Z,8.10
2019-04-22T08:28:30.320Z,8.50
2019-04-22T08:29:43.796Z,10.20
2019-04-22T08:30:33.851Z,9.90
2019-04-22T08:32:34.973Z,14.10
2019-04-22T08:33:35.504Z,11.40
2019-04-22T08:34:29.601Z,11.10
2019-04-22T08:35:48.968Z,9.50
2019-04-22T08:36:31.710Z,9.40
2019-04-22T08:38:37.262Z,7.60
2019-04-22T08:39:40.593Z,8.40
2019-04-22T08:41:33.093Z,8.50
2019-04-22T08:42:51.022Z,9.50
2019-04-22T08:43:38.092Z,13.70
2019-04-22T08:45:31.774Z,7.40
2019-04-22T08:46:49.027Z,7.80
2019-04-22T08:47:30.999Z,8.50
2019-04-22T08:48:29.607Z,8.80
2019-04-22T08:49:33.198Z,8.00
2019-04-22T08:50:29.477Z,9.20
2019-04-22T08:52:27.482Z,11.20
2019-04-22T08:53:35.889Z,9.10
2019-04-22T08:54:33.948Z,9.20
2019-04-22T08:55:32.945Z,9.20
2019-04-22T08:56:33.626Z,7.90
2019-04-22T08:57:34.718Z,9.30
2019-04-22T08:58:29.365Z,9.20
2019-04-22T08:59:46.247Z,9.50
2019-04-22T09:00:34.781Z,9.00
2019-04-22T09:01:29.946Z,7.90
2019-04-22T09:02:36.994Z,6.90
2019-04-22T09:03:30.374Z,7.20
2019-04-22T09:04:22.845Z,8.80
2019-04-22T09:05:41.963Z,6.50
2019-04-22T09:06:39.641Z,12.70
2019-04-22T09:08:50.419Z,7.40
2019-04-22T09:09:36.173Z,9.80
2019-04-22T09:10:31.368Z,12.60
2019-04-22T09:11:37.310Z,14.70
2019-04-22T09:13:33.120Z,6.70
2019-04-22T09:14:32.402Z,8.00
2019-04-22T09:15:31.014Z,9.40
2019-04-22T09:16:33.334Z,8.50
2019-04-22T09:17:28.132Z,9.40
2019-04-22T09:18:28.728Z,9.10
2019-04-22T09:19:28.464Z,6.90
2019-04-22T09:20:28.425Z,7.70
2019-04-22T09:21:45.479Z,8.50
2019-04-22T09:22:44.036Z,8.30
2019-04-22T09:23:33.971Z,10.00
2019-04-22T09:24:32.580Z,7.40
2019-04-22T09:25:30.228Z,7.60
2019-04-22T09:26:30.996Z,8.00
2019-04-22T09:27:37.106Z,11.00
2019-04-22T09:28:31.170Z,8.70
2019-04-22T09:29:34.391Z,9.20
2019-04-22T09:30:36.983Z,6.30
2019-04-22T09:31:23.973Z,7.50
2019-04-22T09:32:34.781Z,7.00
2019-04-22T09:33:27.108Z,7.70
2019-04-22T09:34:27.760Z,7.90
2019-04-22T09:35:31.530Z,7.00
2019-04-22T09:36:37.101Z,12.70
2019-04-22T09:37:34.125Z,7.80
2019-04-22T09:39:30.295Z,6.60
2019-04-22T09:40:32.444Z,9.50
2019-04-22T09:41:33.707Z,6.90
2019-04-22T09:42:37.361Z,8.40
2019-04-22T09:43:31.798Z,6.00
2019-04-22T09:44:31.087Z,6.80
2019-04-22T09:45:27.444Z,6.20
2019-04-22T09:46:29.918Z,7.30
2019-04-22T09:48:30.096Z,6.30
2019-04-22T09:50:29.392Z,11.20
2019-04-22T09:51:29.072Z,6.00
2019-04-22T09:52:28.028Z,8.00
2019-04-22T09:53:31.791Z,6.90
2019-04-22T09:54:44.941Z,7.40
2019-04-22T09:55:41.664Z,6.60
2019-04-22T09:56:31.770Z,8.70
2019-04-22T09:57:24.457Z,6.60
2019-04-22T09:58:34.746Z,6.70
2019-04-22T09:59:30.059Z,8.40
2019-04-22T10:00:33.351Z,7.40
2019-04-22T10:03:25.949Z,7.10
2019-04-22T10:04:25.380Z,6.40
2019-04-22T10:05:28.542Z,7.50
2019-04-22T10:07:25.726Z,6.20
2019-04-22T10:08:33.852Z,9.00
2019-04-22T10:09:40.601Z,6.00
2019-04-22T10:10:28.133Z,5.90
2019-04-22T10:11:35.021Z,5.10
2019-04-22T10:12:32.483Z,7.00
2019-04-22T10:13:34.774Z,6.80
2019-04-22T10:15:30.682Z,5.80
2019-04-22T10:16:31.568Z,7.30
2019-04-22T10:17:25.046Z,5.90
2019-04-22T10:18:34.061Z,5.00
2019-04-22T10:19:31.656Z,5.30
2019-04-22T10:20:27.065Z,5.20
2019-04-22T10:21:38.780Z,5.20
2019-04-22T10:22:32.331Z,5.60
2019-04-22T10:23:42.372Z,5.40
2019-04-22T10:24:26.516Z,6.10
2019-04-22T10:25:32.843Z,7.50
2019-04-22T10:26:21.818Z,7.80
2019-04-22T10:27:29.218Z,5.20
2019-04-22T10:28:32.324Z,6.40
2019-04-22T10:29:24.643Z,7.00
2019-04-22T10:30:34.173Z,5.10
2019-04-22T10:31:31.120Z,4.80
2019-04-22T10:32:27.034Z,5.20
2019-04-22T10:33:23.933Z,7.00
2019-04-22T10:34:14.088Z,4.80
2019-04-22T10:35:06.780Z,6.40
2019-04-22T10:36:03.518Z,4.90
2019-04-22T10:37:05.703Z,5.70
2019-04-22T10:38:01.921Z,5.50
2019-04-22T10:39:02.277Z,6.40
2019-04-22T10:40:04.794Z,7.30
2019-04-22T10:41:02.745Z,4.40
2019-04-22T10:42:02.900Z,7.30
2019-04-22T10:43:03.131Z,3.70
2019-04-22T10:44:03.333Z,4.40
2019-04-22T10:45:01.801Z,6.70
2019-04-22T10:46:02.104Z,4.60
2019-04-22T10:47:02.180Z,4.50
2019-04-22T10:48:01.765Z,6.70
2019-04-22T10:49:02.012Z,6.30
2019-04-22T10:50:02.693Z,4.30
2019-04-22T10:51:01.701Z,6.30
2019-04-22T10:52:02.694Z,6.80
2019-04-22T10:53:01.668Z,4.70
2019-04-22T10:54:01.865Z,9.20
2019-04-22T10:55:01.642Z,7.70
2019-04-22T10:56:03.025Z,5.90
2019-04-22T10:57:01.601Z,7.60
2019-04-22T10:58:02.294Z,5.90
2019-04-22T10:59:02.574Z,7.30
2019-04-22T11:00:02.872Z,5.70
2019-04-22T11:01:01.529Z,6.60
2019-04-22T11:02:01.510Z,5.10
2019-04-22T11:03:02.393Z,5.90
2019-04-22T11:04:01.595Z,5.50
2019-04-22T11:05:02.054Z,6.00
2019-04-22T11:06:01.439Z,5.00
2019-04-22T11:07:05.490Z,5.40
2019-04-22T11:08:06.006Z,5.50
2019-04-22T11:09:04.806Z,12.80
2019-04-22T11:10:20.598Z,7.50
2019-04-22T11:11:16.201Z,4.40
2019-04-22T11:12:07.670Z,6.30
2019-04-22T11:13:01.323Z,7.20
2019-04-22T11:14:01.996Z,6.40
2019-04-22T11:15:01.282Z,6.20
2019-04-22T11:16:01.265Z,5.40
2019-04-22T11:17:03.406Z,6.40
2019-04-22T11:18:01.970Z,6.60
2019-04-22T11:19:01.461Z,4.80
2019-04-22T11:20:01.904Z,7.10
2019-04-22T11:21:01.916Z,7.90
2019-04-22T11:22:09.619Z,5.90
2019-04-22T11:23:02.549Z,4.10
2019-04-22T11:24:01.122Z,5.70
2019-04-22T11:25:01.335Z,5.20
2019-04-22T11:26:01.823Z,7.50
2019-04-22T11:27:01.189Z,5.30
2019-04-22T11:28:01.949Z,5.60
2019-04-22T11:29:01.505Z,5.30
2019-04-22T11:30:01.846Z,6.40
2019-04-22T11:31:01.000Z,10.40
2019-04-22T11:32:02.223Z,5.50
2019-04-22T11:33:02.460Z,4.70
2019-04-22T11:34:00.997Z,4.80
2019-04-22T11:35:01.695Z,6.20
2019-04-22T11:36:01.984Z,8.30
2019-04-22T11:37:01.087Z,5.20
2019-04-22T11:38:01.174Z,6.10
2019-04-22T11:39:04.120Z,5.40
2019-04-22T11:40:15.119Z,5.40
2019-04-22T11:41:01.906Z,7.40
2019-04-22T11:42:02.325Z,4.90
2019-04-22T11:43:01.902Z,6.90
2019-04-22T11:44:01.331Z,9.60
2019-04-22T11:45:01.377Z,3.60
2019-04-22T11:46:00.736Z,6.40
2019-04-22T11:47:01.586Z,5.40
2019-04-22T11:48:01.527Z,5.70
2019-04-22T11:49:00.684Z,5.80
2019-04-22T11:50:02.092Z,6.30
2019-04-22T11:51:01.951Z,6.50
2019-04-22T11:52:00.986Z,5.90
2019-04-22T11:53:00.870Z,3.70
2019-04-22T11:54:01.074Z,7.40
2019-04-22T11:55:01.101Z,6.00
2019-04-22T11:56:00.672Z,4.90
2019-04-22T11:57:01.092Z,5.80
2019-04-22T11:58:01.143Z,5.30
2019-04-22T11:59:00.788Z,5.30
2019-04-22T12:00:01.026Z,6.50
2019-04-22T12:01:01.170Z,3.90
2019-04-22T12:02:00.668Z,7.60
2019-04-22T12:03:00.847Z,7.30
2019-04-22T12:04:01.983Z,5.60
2019-04-22T12:05:01.761Z,5.40
2019-04-22T12:06:01.882Z,4.10
2019-04-22T12:07:00.367Z,4.80
2019-04-22T12:08:00.344Z,5.40
2019-04-22T12:09:01.628Z,6.20
2019-04-22T12:10:13.267Z,4.30
2019-04-22T12:11:04.020Z,7.10
2019-04-22T12:12:00.273Z,5.40
2019-04-22T12:13:00.255Z,4.80
2019-04-22T12:14:00.272Z,5.80
2019-04-22T12:15:00.796Z,6.50
2019-04-22T12:16:00.925Z,3.40
2019-04-22T12:17:01.486Z,4.00
2019-04-22T12:18:01.473Z,4.00
2019-04-22T12:19:00.889Z,6.40
2019-04-22T12:20:02.097Z,5.40
2019-04-22T12:21:01.331Z,3.50
2019-04-22T12:22:00.721Z,4.50
2019-04-22T12:23:01.122Z,5.60
2019-04-22T12:24:01.136Z,3.40
2019-04-22T12:25:00.618Z,5.00
2019-04-22T12:26:05.884Z,4.50
2019-04-22T12:27:00.343Z,4.90
2019-04-22T12:28:01.119Z,8.20
2019-04-22T12:28:59.965Z,4.60
2019-04-22T12:30:00.905Z,3.80
2019-04-22T12:30:59.930Z,5.80
2019-04-22T12:31:59.910Z,4.60
2019-04-22T12:33:00.212Z,4.60
2019-04-22T12:34:01.293Z,3.50
2019-04-22T12:34:59.924Z,3.90
2019-04-22T12:36:00.364Z,3.80
2019-04-22T12:37:00.463Z,4.90
2019-04-22T12:38:06.144Z,4.00
2019-04-22T12:38:59.808Z,3.80
2019-04-22T12:40:00.387Z,3.40
2019-04-22T12:41:04.367Z,5.50
2019-04-22T12:42:00.375Z,6.10
2019-04-22T12:43:04.151Z,5.30
2019-04-22T12:44:01.004Z,5.30
2019-04-22T12:45:00.463Z,6.60
2019-04-22T12:46:00.473Z,3.40
2019-04-22T12:47:01.982Z,4.80
2019-04-22T12:48:00.096Z,6.20
2019-04-22T12:49:00.293Z,5.20
2019-04-22T12:50:11.824Z,4.60
2019-04-22T12:51:00.830Z,4.50
2019-04-22T12:52:00.985Z,5.70
2019-04-22T12:53:06.902Z,7.10
2019-04-22T12:53:59.515Z,3.60
2019-04-22T12:54:59.497Z,4.20
2019-04-22T12:56:01.141Z,5.90
2019-04-22T12:56:59.816Z,5.00
2019-04-22T12:58:02.427Z,4.10
2019-04-22T12:58:59.513Z,5.40
2019-04-22T12:59:59.632Z,4.10
2019-04-22T13:00:59.393Z,5.60
2019-04-22T13:02:00.681Z,3.50
2019-04-22T13:02:59.355Z,7.90
2019-04-22T13:04:05.727Z,4.40
2019-04-22T13:05:00.630Z,3.60
2019-04-22T13:05:59.492Z,3.60
2019-04-22T13:06:59.700Z,2.50
2019-04-22T13:08:00.106Z,3.30
2019-04-22T13:09:00.239Z,5.70
2019-04-22T13:09:59.365Z,3.90
2019-04-22T13:11:05.834Z,2.30
2019-04-22T13:11:59.297Z,4.20
2019-04-22T13:13:00.753Z,3.20
2019-04-22T13:13:59.156Z,4.40
2019-04-22T13:14:59.240Z,2.60
2019-04-22T13:15:59.391Z,2.80
2019-04-22T13:16:59.787Z,6.60
2019-04-22T13:18:05.771Z,3.60
2019-04-22T13:19:04.568Z,2.60
2019-04-22T13:20:00.381Z,3.60
2019-04-22T13:21:00.341Z,5.20
2019-04-22T13:21:59.023Z,2.60
2019-04-22T13:22:58.996Z,2.50
2019-04-22T13:23:59.296Z,4.20
2019-04-22T13:24:59.722Z,6.00
2019-04-22T13:25:59.130Z,5.50
2019-04-22T13:26:59.163Z,5.70
2019-04-22T13:27:58.919Z,4.00
2019-04-22T13:28:59.108Z,3.70
2019-04-22T13:29:59.491Z,2.30
2019-04-22T13:31:01.739Z,3.60
2019-04-22T13:31:58.833Z,5.10
2019-04-22T13:32:58.817Z,3.90
2019-04-22T13:34:01.750Z,12.10
2019-04-22T13:35:01.574Z,6.00
2019-04-22T13:35:59.608Z,7.40
2019-04-22T13:36:59.031Z,6.00
2019-04-22T13:37:59.342Z,3.70
2019-04-22T13:38:58.891Z,2.20
2019-04-22T13:39:58.994Z,2.80
2019-04-22T13:41:12.469Z,3.80
2019-04-22T13:42:03.561Z,3.20
2019-04-22T13:42:58.766Z,8.40
2019-04-22T13:43:59.825Z,7.20
2019-04-22T13:45:00.110Z,5.60
2019-04-22T13:45:58.577Z,3.70
2019-04-22T13:47:14.743Z,4.70
2019-04-22T13:48:16.750Z,3.80
2019-04-22T13:49:23.956Z,3.40
2019-04-22T13:50:36.432Z,2.90
2019-04-22T13:51:32.441Z,2.60
2019-04-22T13:53:42.576Z,4.90
2019-04-22T13:55:27.286Z,4.00
2019-04-22T13:56:19.327Z,3.40
2019-04-22T13:57:19.754Z,2.80
2019-04-22T13:58:12.185Z,3.70
2019-04-22T13:59:08.789Z,3.00
2019-04-22T14:00:00.712Z,3.30
2019-04-22T14:00:58.599Z,6.30
2019-04-22T14:01:58.832Z,4.30
2019-04-22T14:02:58.322Z,2.30
2019-04-22T14:03:58.799Z,3.30
2019-04-22T14:04:59.167Z,6.00
2019-04-22T14:05:58.576Z,5.80
2019-04-22T14:06:58.793Z,3.00
2019-04-22T14:08:00.798Z,4.90
2019-04-22T14:08:59.073Z,6.60
2019-04-22T14:09:58.324Z,3.60
2019-04-22T14:11:14.888Z,3.90
2019-04-22T14:12:05.057Z,3.80
2019-04-22T14:13:00.145Z,3.50
2019-04-22T14:13:58.718Z,5.40
2019-04-22T14:14:58.447Z,4.10
2019-04-22T14:15:59.409Z,6.40
2019-04-22T14:16:58.768Z,8.40
2019-04-22T14:17:58.811Z,3.50
2019-04-22T14:18:58.212Z,4.60
2019-04-22T14:19:57.948Z,2.30
2019-04-22T14:20:58.697Z,5.10
2019-04-22T14:21:57.913Z,4.10
2019-04-22T14:22:58.739Z,3.90
2019-04-22T14:23:58.539Z,3.80
2019-04-22T14:24:58.862Z,6.60
2019-04-22T14:25:59.097Z,6.80
2019-04-22T14:27:13.778Z,3.60
2019-04-22T14:28:03.634Z,2.50
2019-04-22T14:28:57.858Z,3.10
2019-04-22T14:29:57.789Z,2.30
2019-04-22T14:30:57.768Z,4.50
2019-04-22T14:32:06.701Z,3.90
2019-04-22T14:32:58.043Z,4.40
2019-04-22T14:34:01.728Z,8.50
2019-04-22T14:34:57.672Z,4.60
2019-04-22T14:35:58.513Z,5.80
2019-04-22T14:36:57.636Z,5.30
2019-04-22T14:37:58.288Z,4.40
2019-04-22T14:38:57.838Z,3.90
2019-04-22T14:39:57.866Z,3.10
2019-04-22T14:40:58.550Z,4.10
2019-04-22T14:42:19.704Z,5.60
2019-04-22T14:43:20.153Z,6.00
2019-04-22T14:44:59.393Z,7.60
2019-04-22T14:45:23.176Z,5.40
2019-04-22T14:46:20.706Z,6.10
2019-04-22T14:47:19.892Z,5.00
2019-04-22T14:48:24.785Z,5.50
2019-04-22T14:49:23.854Z,5.80
2019-04-22T14:50:17.835Z,5.10
2019-04-22T14:51:19.091Z,4.40
2019-04-22T14:52:22.779Z,3.30
2019-04-22T14:53:18.442Z,4.50
2019-04-22T14:54:15.473Z,3.70
2019-04-22T14:55:06.118Z,2.90
2019-04-22T14:55:58.185Z,7.40
2019-04-22T14:56:57.263Z,4.70
2019-04-22T14:57:57.242Z,5.70
2019-04-22T14:58:58.725Z,3.00
2019-04-22T14:59:57.862Z,4.60
2019-04-22T15:00:57.185Z,4.60
2019-04-22T15:01:58.146Z,4.60
2019-04-22T15:02:57.516Z,3.80
2019-04-22T15:03:58.643Z,3.20
2019-04-22T15:04:58.430Z,2.10